メインページ
METAR-TAF:

METAR-TAF

空港 :

マイアミ, フロリダ州, アメリカ合衆国

マイアミ国際空港

緯度: 25-47-26N, 経度: 080-18-59W, 海抜: 3m

現時点の気象観測

当レポートは16分前の11:53(UTC)に作成
の風 14kt、最大17ktの突風を伴う
気温 22°C
湿度 73%
気圧 1024 hPa
視程: 16.1km
高度2900ftの雲は散在している
高度6000ftの千切れ雲あり

METAR: KMIA 241153Z 08014G17KT 10SM SCT029 BKN060 22/17 A3024 RMK AO2 SLP240 60006 70123 T02220167 10222 20206 53014 $

時間: 08:09 (12:09 UTC)

予報

当レポートは47分前の11:22(UTC)に作成
予報は24日の 12時(UTC)から 25日の 12時(UTC)まで有効
の風 14kt
視程: 10km
高度2500ftの雲は散在している
高度4000ftの千切れ雲あり
高度7000ftの千切れ雲あり
近辺でにわか雨
24日の 1400時(UTC)から
の風 19kt、最大28ktの突風を伴う
視程: 10km
高度2500ftの雲は散在している
高度5000ftの千切れ雲あり
近辺でにわか雨
25日の 0000時(UTC)から
の風 11kt
視程: 10km
高度3000ftの雲は散在している
高度5000ftの雲は散在している
近辺でにわか雨

TAF: KMIA 241122Z 2412/2512 08014KT P6SM VCSH SCT025 BKN040 BKN070 FM241400 08019G28KT P6SM VCSH SCT025 BKN050 FM250000 08011KT P6SM VCSH SCT030 SCT050

4,000以上の空港の気象観測と天気予報(METAR報とTAF報)

利用可能な観測所は地図上に黄色い丸と赤い丸で示す。

丸の上にカーソルを重ねると観測所名を参照できる。

次にクリックすると気象観測と天気予報を参照できる。

マップの切り替え:黒色「×」印の緑ボタンをクリックして拡大、「-」印の緑ボタンをクリックして縮小、緑色の三角印をクリックして隣りの地図に切り替え


METAR-TAF: